sensor_id;sensor_type;location;lat;lon;timestamp;P1;durP1;ratioP1;P2;durP2;ratioP2
71792;SDS011;59639;51.170;6.456;2022-07-03T00:02:04;4.40;;;1.83;;
71792;SDS011;59639;51.170;6.456;2022-07-03T00:04:29;2.83;;;1.55;;
71792;SDS011;59639;51.170;6.456;2022-07-03T00:06:55;5.28;;;3.33;;
71792;SDS011;59639;51.170;6.456;2022-07-03T00:09:20;7.25;;;3.45;;
71792;SDS011;59639;51.170;6.456;2022-07-03T00:11:46;5.45;;;1.83;;
71792;SDS011;59639;51.170;6.456;2022-07-03T00:14:11;3.60;;;1.80;;
71792;SDS011;59639;51.170;6.456;2022-07-03T00:16:37;3.80;;;1.45;;
71792;SDS011;59639;51.170;6.456;2022-07-03T00:19:02;4.55;;;2.30;;
71792;SDS011;59639;51.170;6.456;2022-07-03T00:21:31;3.30;;;2.00;;
71792;SDS011;59639;51.170;6.456;2022-07-03T00:24:05;3.95;;;2.28;;
71792;SDS011;59639;51.170;6.456;2022-07-03T00:26:37;4.75;;;2.13;;
71792;SDS011;59639;51.170;6.456;2022-07-03T00:29:05;4.65;;;2.17;;
71792;SDS011;59639;51.170;6.456;2022-07-03T00:31:33;5.30;;;2.35;;
71792;SDS011;59639;51.170;6.456;2022-07-03T00:34:00;4.65;;;2.60;;
71792;SDS011;59639;51.170;6.456;2022-07-03T00:36:26;7.50;;;2.22;;
71792;SDS011;59639;51.170;6.456;2022-07-03T00:38:57;9.55;;;2.50;;
71792;SDS011;59639;51.170;6.456;2022-07-03T00:41:41;5.85;;;2.30;;
71792;SDS011;59639;51.170;6.456;2022-07-03T00:44:10;6.90;;;2.28;;
71792;SDS011;59639;51.170;6.456;2022-07-03T00:46:37;4.13;;;2.28;;
71792;SDS011;59639;51.170;6.456;2022-07-03T00:49:04;6.03;;;1.98;;
71792;SDS011;59639;51.170;6.456;2022-07-03T00:51:33;7.82;;;2.70;;
71792;SDS011;59639;51.170;6.456;2022-07-03T00:53:59;4.25;;;2.47;;
71792;SDS011;59639;51.170;6.456;2022-07-03T00:56:29;3.40;;;1.98;;
71792;SDS011;59639;51.170;6.456;2022-07-03T00:58:58;5.32;;;1.88;;
71792;SDS011;59639;51.170;6.456;2022-07-03T01:01:26;3.05;;;1.95;;
71792;SDS011;59639;51.170;6.456;2022-07-03T01:04:02;9.77;;;2.35;;
71792;SDS011;59639;51.170;6.456;2022-07-03T01:06:35;9.98;;;1.67;;
71792;SDS011;59639;51.170;6.456;2022-07-03T01:09:07;3.38;;;1.67;;
71792;SDS011;59639;51.170;6.456;2022-07-03T01:11:37;6.70;;;2.05;;
71792;SDS011;59639;51.170;6.456;2022-07-03T01:14:32;3.95;;;2.13;;
71792;SDS011;59639;51.170;6.456;2022-07-03T01:17:10;9.70;;;2.83;;
71792;SDS011;59639;51.170;6.456;2022-07-03T01:19:46;6.10;;;2.25;;
71792;SDS011;59639;51.170;6.456;2022-07-03T01:30:30;8.20;;;2.25;;
71792;SDS011;59639;51.170;6.456;2022-07-03T01:33:05;3.78;;;2.30;;
71792;SDS011;59639;51.170;6.456;2022-07-03T01:35:34;7.05;;;2.17;;
71792;SDS011;59639;51.170;6.456;2022-07-03T01:38:06;6.15;;;2.50;;
71792;SDS011;59639;51.170;6.456;2022-07-03T01:40:35;4.25;;;2.13;;
71792;SDS011;59639;51.170;6.456;2022-07-03T01:43:03;5.05;;;2.35;;
71792;SDS011;59639;51.170;6.456;2022-07-03T01:45:35;7.53;;;2.60;;
71792;SDS011;59639;51.170;6.456;2022-07-03T01:48:04;6.97;;;2.17;;
71792;SDS011;59639;51.170;6.456;2022-07-03T01:50:30;4.70;;;2.47;;
71792;SDS011;59639;51.170;6.456;2022-07-03T01:52:57;5.57;;;2.60;;
71792;SDS011;59639;51.170;6.456;2022-07-03T01:55:27;8.13;;;2.78;;
71792;SDS011;59639;51.170;6.456;2022-07-03T01:57:57;7.10;;;2.63;;
71792;SDS011;59639;51.170;6.456;2022-07-03T02:00:23;8.15;;;2.75;;
71792;SDS011;59639;51.170;6.456;2022-07-03T02:03:02;8.00;;;3.00;;
71792;SDS011;59639;51.170;6.456;2022-07-03T02:05:42;4.15;;;2.20;;
71792;SDS011;59639;51.170;6.456;2022-07-03T02:11:16;5.85;;;3.00;;
71792;SDS011;59639;51.170;6.456;2022-07-03T02:19:15;5.55;;;1.90;;
71792;SDS011;59639;51.170;6.456;2022-07-03T02:21:47;6.50;;;2.67;;
71792;SDS011;59639;51.170;6.456;2022-07-03T02:24:19;5.15;;;2.22;;
71792;SDS011;59639;51.170;6.456;2022-07-03T02:26:53;4.20;;;2.35;;
71792;SDS011;59639;51.170;6.456;2022-07-03T02:29:31;6.35;;;2.05;;
71792;SDS011;59639;51.170;6.456;2022-07-03T02:32:00;6.00;;;2.50;;
71792;SDS011;59639;51.170;6.456;2022-07-03T02:34:29;6.10;;;2.13;;
71792;SDS011;59639;51.170;6.456;2022-07-03T02:36:58;4.43;;;2.85;;
71792;SDS011;59639;51.170;6.456;2022-07-03T02:42:05;7.22;;;1.60;;
71792;SDS011;59639;51.170;6.456;2022-07-03T02:44:48;3.65;;;2.10;;
71792;SDS011;59639;51.170;6.456;2022-07-03T02:50:07;2.83;;;1.70;;
71792;SDS011;59639;51.170;6.456;2022-07-03T02:58:12;9.80;;;1.70;;
71792;SDS011;59639;51.170;6.456;2022-07-03T03:04:40;6.88;;;1.90;;
71792;SDS011;59639;51.170;6.456;2022-07-03T03:06:41;4.38;;;1.70;;
71792;SDS011;59639;51.170;6.456;2022-07-03T03:09:20;7.00;;;2.25;;
71792;SDS011;59639;51.170;6.456;2022-07-03T03:11:51;5.32;;;2.08;;
71792;SDS011;59639;51.170;6.456;2022-07-03T03:14:21;2.63;;;1.52;;
71792;SDS011;59639;51.170;6.456;2022-07-03T03:16:55;15.55;;;1.80;;
71792;SDS011;59639;51.170;6.456;2022-07-03T03:19:21;3.53;;;1.52;;
71792;SDS011;59639;51.170;6.456;2022-07-03T03:24:51;6.55;;;1.95;;
71792;SDS011;59639;51.170;6.456;2022-07-03T03:27:17;10.57;;;1.88;;
71792;SDS011;59639;51.170;6.456;2022-07-03T03:29:44;14.30;;;3.38;;
71792;SDS011;59639;51.170;6.456;2022-07-03T03:32:10;4.07;;;1.42;;
71792;SDS011;59639;51.170;6.456;2022-07-03T03:34:36;2.85;;;1.90;;
71792;SDS011;59639;51.170;6.456;2022-07-03T03:37:04;8.55;;;1.95;;
71792;SDS011;59639;51.170;6.456;2022-07-03T03:39:31;3.00;;;2.10;;
71792;SDS011;59639;51.170;6.456;2022-07-03T03:41:56;9.80;;;2.28;;
71792;SDS011;59639;51.170;6.456;2022-07-03T03:44:22;3.97;;;2.08;;
71792;SDS011;59639;51.170;6.456;2022-07-03T03:46:49;4.22;;;2.47;;
71792;SDS011;59639;51.170;6.456;2022-07-03T03:49:15;10.65;;;1.98;;
71792;SDS011;59639;51.170;6.456;2022-07-03T03:51:40;2.97;;;1.95;;
71792;SDS011;59639;51.170;6.456;2022-07-03T03:54:06;4.65;;;1.98;;
71792;SDS011;59639;51.170;6.456;2022-07-03T03:56:31;7.10;;;1.90;;
71792;SDS011;59639;51.170;6.456;2022-07-03T03:58:56;4.00;;;2.10;;
71792;SDS011;59639;51.170;6.456;2022-07-03T04:01:22;3.50;;;1.88;;
71792;SDS011;59639;51.170;6.456;2022-07-03T04:03:47;7.15;;;2.08;;
71792;SDS011;59639;51.170;6.456;2022-07-03T04:06:13;5.18;;;2.05;;
71792;SDS011;59639;51.170;6.456;2022-07-03T04:08:38;9.00;;;2.30;;
71792;SDS011;59639;51.170;6.456;2022-07-03T04:11:03;5.95;;;2.40;;
71792;SDS011;59639;51.170;6.456;2022-07-03T04:13:29;4.90;;;2.10;;
71792;SDS011;59639;51.170;6.456;2022-07-03T04:15:54;6.72;;;1.90;;
71792;SDS011;59639;51.170;6.456;2022-07-03T04:18:20;6.03;;;2.10;;
71792;SDS011;59639;51.170;6.456;2022-07-03T04:20:46;4.57;;;2.17;;
71792;SDS011;59639;51.170;6.456;2022-07-03T04:23:11;5.90;;;1.90;;
71792;SDS011;59639;51.170;6.456;2022-07-03T04:25:37;5.57;;;2.30;;
71792;SDS011;59639;51.170;6.456;2022-07-03T04:28:02;4.07;;;2.20;;
71792;SDS011;59639;51.170;6.456;2022-07-03T04:30:28;6.35;;;2.85;;
71792;SDS011;59639;51.170;6.456;2022-07-03T04:32:53;4.32;;;2.45;;
71792;SDS011;59639;51.170;6.456;2022-07-03T04:35:19;4.72;;;2.70;;
71792;SDS011;59639;51.170;6.456;2022-07-03T04:37:44;6.70;;;2.40;;
71792;SDS011;59639;51.170;6.456;2022-07-03T04:40:10;5.18;;;2.55;;
71792;SDS011;59639;51.170;6.456;2022-07-03T04:42:36;4.90;;;2.95;;
71792;SDS011;59639;51.170;6.456;2022-07-03T04:45:05;5.78;;;2.60;;
71792;SDS011;59639;51.170;6.456;2022-07-03T04:47:31;4.13;;;2.70;;
71792;SDS011;59639;51.170;6.456;2022-07-03T04:49:56;6.20;;;2.80;;
71792;SDS011;59639;51.170;6.456;2022-07-03T04:52:22;8.25;;;3.10;;
71792;SDS011;59639;51.170;6.456;2022-07-03T04:54:48;7.53;;;3.45;;
71792;SDS011;59639;51.170;6.456;2022-07-03T04:57:13;7.03;;;3.10;;
71792;SDS011;59639;51.170;6.456;2022-07-03T04:59:39;8.30;;;3.55;;
71792;SDS011;59639;51.170;6.456;2022-07-03T05:02:04;4.70;;;3.05;;
71792;SDS011;59639;51.170;6.456;2022-07-03T05:04:30;7.50;;;3.65;;
71792;SDS011;59639;51.170;6.456;2022-07-03T05:06:55;6.68;;;3.65;;
71792;SDS011;59639;51.170;6.456;2022-07-03T05:09:21;6.20;;;3.60;;
71792;SDS011;59639;51.170;6.456;2022-07-03T05:11:46;6.43;;;3.70;;
71792;SDS011;59639;51.170;6.456;2022-07-03T05:14:12;5.15;;;3.28;;
71792;SDS011;59639;51.170;6.456;2022-07-03T05:16:37;9.98;;;4.60;;
71792;SDS011;59639;51.170;6.456;2022-07-03T05:19:02;6.03;;;3.95;;
71792;SDS011;59639;51.170;6.456;2022-07-03T05:21:28;13.27;;;4.88;;
71792;SDS011;59639;51.170;6.456;2022-07-03T05:23:53;11.73;;;4.70;;
71792;SDS011;59639;51.170;6.456;2022-07-03T05:26:19;6.20;;;3.72;;
71792;SDS011;59639;51.170;6.456;2022-07-03T05:28:45;8.50;;;4.05;;
71792;SDS011;59639;51.170;6.456;2022-07-03T05:31:10;7.88;;;4.10;;
71792;SDS011;59639;51.170;6.456;2022-07-03T05:33:36;12.13;;;4.32;;
71792;SDS011;59639;51.170;6.456;2022-07-03T05:36:02;10.55;;;4.00;;
71792;SDS011;59639;51.170;6.456;2022-07-03T05:38:28;9.52;;;4.20;;
71792;SDS011;59639;51.170;6.456;2022-07-03T05:41:12;8.02;;;4.38;;
71792;SDS011;59639;51.170;6.456;2022-07-03T05:43:38;7.57;;;3.97;;
71792;SDS011;59639;51.170;6.456;2022-07-03T05:46:03;6.72;;;4.30;;
71792;SDS011;59639;51.170;6.456;2022-07-03T05:48:29;9.95;;;3.75;;
71792;SDS011;59639;51.170;6.456;2022-07-03T05:50:55;8.13;;;3.63;;
71792;SDS011;59639;51.170;6.456;2022-07-03T05:53:21;14.07;;;4.68;;
71792;SDS011;59639;51.170;6.456;2022-07-03T05:55:47;6.20;;;3.60;;
71792;SDS011;59639;51.170;6.456;2022-07-03T05:58:13;7.93;;;3.60;;
71792;SDS011;59639;51.170;6.456;2022-07-03T06:00:39;10.10;;;4.75;;
71792;SDS011;59639;51.170;6.456;2022-07-03T06:03:05;10.10;;;3.85;;
71792;SDS011;59639;51.170;6.456;2022-07-03T06:05:30;7.20;;;3.88;;
71792;SDS011;59639;51.170;6.456;2022-07-03T06:07:57;8.15;;;2.97;;
71792;SDS011;59639;51.170;6.456;2022-07-03T06:10:23;9.48;;;4.35;;
71792;SDS011;59639;51.170;6.456;2022-07-03T06:12:49;7.25;;;2.95;;
71792;SDS011;59639;51.170;6.456;2022-07-03T06:15:14;11.38;;;3.40;;
71792;SDS011;59639;51.170;6.456;2022-07-03T06:17:40;11.07;;;3.45;;
71792;SDS011;59639;51.170;6.456;2022-07-03T06:20:06;3.83;;;2.72;;
71792;SDS011;59639;51.170;6.456;2022-07-03T06:22:32;4.00;;;2.40;;
71792;SDS011;59639;51.170;6.456;2022-07-03T06:24:57;5.60;;;2.72;;
71792;SDS011;59639;51.170;6.456;2022-07-03T06:27:23;2.70;;;2.10;;
71792;SDS011;59639;51.170;6.456;2022-07-03T06:29:49;2.65;;;1.83;;
71792;SDS011;59639;51.170;6.456;2022-07-03T06:32:15;3.30;;;2.22;;
71792;SDS011;59639;51.170;6.456;2022-07-03T06:34:41;3.10;;;1.75;;
71792;SDS011;59639;51.170;6.456;2022-07-03T06:37:08;6.38;;;2.00;;
71792;SDS011;59639;51.170;6.456;2022-07-03T06:39:33;4.07;;;2.08;;
71792;SDS011;59639;51.170;6.456;2022-07-03T06:41:59;2.40;;;1.45;;
71792;SDS011;59639;51.170;6.456;2022-07-03T06:44:24;5.13;;;1.80;;
71792;SDS011;59639;51.170;6.456;2022-07-03T06:46:50;4.45;;;1.63;;
71792;SDS011;59639;51.170;6.456;2022-07-03T06:49:15;2.05;;;1.50;;
71792;SDS011;59639;51.170;6.456;2022-07-03T06:51:40;7.63;;;1.45;;
71792;SDS011;59639;51.170;6.456;2022-07-03T06:54:06;3.67;;;1.48;;
71792;SDS011;59639;51.170;6.456;2022-07-03T06:56:31;3.60;;;1.85;;
71792;SDS011;59639;51.170;6.456;2022-07-03T06:58:56;12.70;;;8.00;;
71792;SDS011;59639;51.170;6.456;2022-07-03T07:01:22;21.52;;;11.98;;
71792;SDS011;59639;51.170;6.456;2022-07-03T07:03:47;3.97;;;1.60;;
71792;SDS011;59639;51.170;6.456;2022-07-03T07:06:12;8.23;;;2.17;;
71792;SDS011;59639;51.170;6.456;2022-07-03T07:08:38;6.90;;;2.03;;
71792;SDS011;59639;51.170;6.456;2022-07-03T07:11:03;7.30;;;1.90;;
71792;SDS011;59639;51.170;6.456;2022-07-03T07:13:28;6.75;;;2.20;;
71792;SDS011;59639;51.170;6.456;2022-07-03T07:15:54;3.10;;;1.88;;
71792;SDS011;59639;51.170;6.456;2022-07-03T07:18:19;4.15;;;2.10;;
71792;SDS011;59639;51.170;6.456;2022-07-03T07:20:44;4.25;;;1.77;;
71792;SDS011;59639;51.170;6.456;2022-07-03T07:23:10;3.33;;;1.60;;
71792;SDS011;59639;51.170;6.456;2022-07-03T07:25:36;2.35;;;1.65;;
71792;SDS011;59639;51.170;6.456;2022-07-03T07:28:01;7.95;;;2.30;;
71792;SDS011;59639;51.170;6.456;2022-07-03T07:30:27;8.95;;;4.43;;
71792;SDS011;59639;51.170;6.456;2022-07-03T07:32:52;4.97;;;1.63;;
71792;SDS011;59639;51.170;6.456;2022-07-03T07:35:17;9.88;;;2.38;;
71792;SDS011;59639;51.170;6.456;2022-07-03T07:37:43;6.22;;;1.92;;
71792;SDS011;59639;51.170;6.456;2022-07-03T07:40:09;5.18;;;2.20;;
71792;SDS011;59639;51.170;6.456;2022-07-03T07:42:35;3.70;;;1.70;;
71792;SDS011;59639;51.170;6.456;2022-07-03T07:45:01;4.78;;;1.60;;
71792;SDS011;59639;51.170;6.456;2022-07-03T07:47:26;4.88;;;2.55;;
71792;SDS011;59639;51.170;6.456;2022-07-03T07:49:51;5.60;;;1.92;;
71792;SDS011;59639;51.170;6.456;2022-07-03T07:52:17;6.45;;;1.95;;
71792;SDS011;59639;51.170;6.456;2022-07-03T07:54:42;3.28;;;2.05;;
71792;SDS011;59639;51.170;6.456;2022-07-03T07:57:07;2.58;;;1.98;;
71792;SDS011;59639;51.170;6.456;2022-07-03T07:59:33;6.47;;;2.30;;
71792;SDS011;59639;51.170;6.456;2022-07-03T08:01:58;3.58;;;1.98;;
71792;SDS011;59639;51.170;6.456;2022-07-03T08:04:42;4.65;;;2.50;;
71792;SDS011;59639;51.170;6.456;2022-07-03T08:07:26;5.70;;;2.30;;
71792;SDS011;59639;51.170;6.456;2022-07-03T08:09:51;3.80;;;2.03;;
71792;SDS011;59639;51.170;6.456;2022-07-03T08:12:18;2.92;;;1.95;;
71792;SDS011;59639;51.170;6.456;2022-07-03T08:14:44;4.53;;;2.40;;
71792;SDS011;59639;51.170;6.456;2022-07-03T08:17:09;4.60;;;2.35;;
71792;SDS011;59639;51.170;6.456;2022-07-03T08:19:35;5.60;;;2.15;;
71792;SDS011;59639;51.170;6.456;2022-07-03T08:22:01;5.22;;;1.98;;
71792;SDS011;59639;51.170;6.456;2022-07-03T08:24:26;7.40;;;2.10;;
71792;SDS011;59639;51.170;6.456;2022-07-03T08:26:52;7.18;;;2.38;;
71792;SDS011;59639;51.170;6.456;2022-07-03T08:29:18;4.05;;;1.85;;
71792;SDS011;59639;51.170;6.456;2022-07-03T08:31:43;5.85;;;2.50;;
71792;SDS011;59639;51.170;6.456;2022-07-03T08:34:09;11.35;;;2.60;;
71792;SDS011;59639;51.170;6.456;2022-07-03T08:36:39;5.00;;;2.28;;
71792;SDS011;59639;51.170;6.456;2022-07-03T08:39:05;6.93;;;2.30;;
71792;SDS011;59639;51.170;6.456;2022-07-03T08:41:30;4.18;;;2.05;;
71792;SDS011;59639;51.170;6.456;2022-07-03T08:43:58;4.88;;;2.13;;
71792;SDS011;59639;51.170;6.456;2022-07-03T08:46:25;5.68;;;2.95;;
71792;SDS011;59639;51.170;6.456;2022-07-03T08:48:51;6.70;;;2.60;;
71792;SDS011;59639;51.170;6.456;2022-07-03T08:51:19;4.45;;;2.72;;
71792;SDS011;59639;51.170;6.456;2022-07-03T08:53:45;5.50;;;2.55;;
71792;SDS011;59639;51.170;6.456;2022-07-03T08:56:12;4.40;;;2.28;;
71792;SDS011;59639;51.170;6.456;2022-07-03T08:58:38;6.45;;;2.53;;
71792;SDS011;59639;51.170;6.456;2022-07-03T09:01:04;3.13;;;2.10;;
71792;SDS011;59639;51.170;6.456;2022-07-03T09:03:29;5.45;;;2.25;;
71792;SDS011;59639;51.170;6.456;2022-07-03T09:05:56;7.18;;;2.58;;
71792;SDS011;59639;51.170;6.456;2022-07-03T09:08:22;6.53;;;2.20;;
71792;SDS011;59639;51.170;6.456;2022-07-03T09:10:49;3.55;;;2.20;;
71792;SDS011;59639;51.170;6.456;2022-07-03T09:13:14;6.20;;;2.45;;
71792;SDS011;59639;51.170;6.456;2022-07-03T09:15:40;6.57;;;1.75;;
71792;SDS011;59639;51.170;6.456;2022-07-03T09:18:06;6.72;;;2.40;;
71792;SDS011;59639;51.170;6.456;2022-07-03T09:23:08;32.78;;;4.72;;
71792;SDS011;59639;51.170;6.456;2022-07-03T09:25:58;3.55;;;1.90;;
71792;SDS011;59639;51.170;6.456;2022-07-03T09:31:12;3.97;;;1.90;;
71792;SDS011;59639;51.170;6.456;2022-07-03T09:36:16;5.35;;;1.67;;
71792;SDS011;59639;51.170;6.456;2022-07-03T09:38:44;5.65;;;2.10;;
71792;SDS011;59639;51.170;6.456;2022-07-03T09:41:10;2.03;;;1.50;;
71792;SDS011;59639;51.170;6.456;2022-07-03T09:43:36;2.60;;;1.95;;
71792;SDS011;59639;51.170;6.456;2022-07-03T09:46:07;6.45;;;2.85;;
71792;SDS011;59639;51.170;6.456;2022-07-03T09:48:36;4.90;;;1.80;;
71792;SDS011;59639;51.170;6.456;2022-07-03T09:51:19;6.97;;;2.00;;
71792;SDS011;59639;51.170;6.456;2022-07-03T09:56:24;5.25;;;3.25;;
71792;SDS011;59639;51.170;6.456;2022-07-03T10:01:30;4.90;;;1.60;;
71792;SDS011;59639;51.170;6.456;2022-07-03T10:04:41;7.38;;;2.10;;
71792;SDS011;59639;51.170;6.456;2022-07-03T10:09:10;2.80;;;1.80;;
71792;SDS011;59639;51.170;6.456;2022-07-03T10:11:36;5.55;;;1.77;;
71792;SDS011;59639;51.170;6.456;2022-07-03T10:14:03;3.28;;;1.55;;
71792;SDS011;59639;51.170;6.456;2022-07-03T10:16:29;3.95;;;2.30;;
71792;SDS011;59639;51.170;6.456;2022-07-03T10:18:54;4.00;;;1.50;;
71792;SDS011;59639;51.170;6.456;2022-07-03T10:21:20;3.85;;;1.85;;
71792;SDS011;59639;51.170;6.456;2022-07-03T10:23:46;2.90;;;1.90;;
71792;SDS011;59639;51.170;6.456;2022-07-03T10:26:11;3.08;;;1.67;;
71792;SDS011;59639;51.170;6.456;2022-07-03T10:28:37;2.60;;;1.50;;
71792;SDS011;59639;51.170;6.456;2022-07-03T10:31:03;3.88;;;1.85;;
71792;SDS011;59639;51.170;6.456;2022-07-03T10:33:29;5.63;;;1.70;;
71792;SDS011;59639;51.170;6.456;2022-07-03T10:35:56;3.63;;;1.70;;
71792;SDS011;59639;51.170;6.456;2022-07-03T10:38:25;4.30;;;1.65;;
71792;SDS011;59639;51.170;6.456;2022-07-03T10:41:07;4.00;;;1.50;;
71792;SDS011;59639;51.170;6.456;2022-07-03T10:43:55;7.57;;;1.95;;
71792;SDS011;59639;51.170;6.456;2022-07-03T10:46:39;4.00;;;1.50;;
71792;SDS011;59639;51.170;6.456;2022-07-03T10:49:11;2.92;;;2.50;;
71792;SDS011;59639;51.170;6.456;2022-07-03T10:54:59;7.80;;;1.98;;
71792;SDS011;59639;51.170;6.456;2022-07-03T10:57:26;3.92;;;1.30;;
71792;SDS011;59639;51.170;6.456;2022-07-03T11:07:29;4.80;;;2.10;;
71792;SDS011;59639;51.170;6.456;2022-07-03T11:20:33;1.67;;;1.45;;
71792;SDS011;59639;51.170;6.456;2022-07-03T11:23:00;2.00;;;1.20;;
71792;SDS011;59639;51.170;6.456;2022-07-03T11:25:38;2.78;;;1.20;;
71792;SDS011;59639;51.170;6.456;2022-07-03T11:28:05;6.43;;;1.55;;
71792;SDS011;59639;51.170;6.456;2022-07-03T11:30:31;4.22;;;1.33;;
71792;SDS011;59639;51.170;6.456;2022-07-03T11:32:57;5.22;;;1.50;;
71792;SDS011;59639;51.170;6.456;2022-07-03T11:35:43;3.60;;;2.42;;
71792;SDS011;59639;51.170;6.456;2022-07-03T11:38:14;4.00;;;1.15;;
71792;SDS011;59639;51.170;6.456;2022-07-03T11:40:41;2.40;;;1.30;;
71792;SDS011;59639;51.170;6.456;2022-07-03T11:43:09;2.78;;;1.35;;
71792;SDS011;59639;51.170;6.456;2022-07-03T11:45:37;2.67;;;1.40;;
71792;SDS011;59639;51.170;6.456;2022-07-03T11:48:08;3.30;;;1.33;;
71792;SDS011;59639;51.170;6.456;2022-07-03T11:50:44;2.05;;;0.93;;
71792;SDS011;59639;51.170;6.456;2022-07-03T11:53:15;2.72;;;1.15;;
71792;SDS011;59639;51.170;6.456;2022-07-03T11:58:39;2.15;;;1.20;;
71792;SDS011;59639;51.170;6.456;2022-07-03T12:01:05;2.28;;;1.20;;
71792;SDS011;59639;51.170;6.456;2022-07-03T12:03:30;5.95;;;1.55;;
71792;SDS011;59639;51.170;6.456;2022-07-03T12:05:59;3.92;;;1.30;;
71792;SDS011;59639;51.170;6.456;2022-07-03T12:10:55;1.30;;;0.90;;
71792;SDS011;59639;51.170;6.456;2022-07-03T12:13:26;4.60;;;1.30;;
71792;SDS011;59639;51.170;6.456;2022-07-03T12:15:52;3.08;;;1.20;;
71792;SDS011;59639;51.170;6.456;2022-07-03T12:18:19;2.13;;;1.20;;
71792;SDS011;59639;51.170;6.456;2022-07-03T12:20:44;6.00;;;1.23;;
71792;SDS011;59639;51.170;6.456;2022-07-03T12:23:10;3.40;;;1.17;;
71792;SDS011;59639;51.170;6.456;2022-07-03T12:25:39;2.17;;;1.15;;
71792;SDS011;59639;51.170;6.456;2022-07-03T12:28:06;5.18;;;1.13;;
71792;SDS011;59639;51.170;6.456;2022-07-03T12:30:33;4.10;;;1.08;;
71792;SDS011;59639;51.170;6.456;2022-07-03T12:32:59;3.78;;;1.27;;
71792;SDS011;59639;51.170;6.456;2022-07-03T12:35:25;1.90;;;0.88;;
71792;SDS011;59639;51.170;6.456;2022-07-03T12:37:52;1.83;;;1.23;;
71792;SDS011;59639;51.170;6.456;2022-07-03T12:40:17;4.95;;;1.27;;
71792;SDS011;59639;51.170;6.456;2022-07-03T12:45:10;3.70;;;0.80;;
71792;SDS011;59639;51.170;6.456;2022-07-03T12:47:37;3.47;;;1.33;;
71792;SDS011;59639;51.170;6.456;2022-07-03T12:50:03;4.85;;;1.08;;
71792;SDS011;59639;51.170;6.456;2022-07-03T12:52:31;2.30;;;1.33;;
71792;SDS011;59639;51.170;6.456;2022-07-03T12:54:58;3.33;;;1.02;;
71792;SDS011;59639;51.170;6.456;2022-07-03T12:57:25;2.47;;;0.90;;
71792;SDS011;59639;51.170;6.456;2022-07-03T13:00:19;6.38;;;1.15;;
71792;SDS011;59639;51.170;6.456;2022-07-03T13:02:46;1.98;;;1.00;;
71792;SDS011;59639;51.170;6.456;2022-07-03T13:05:14;3.88;;;1.20;;
71792;SDS011;59639;51.170;6.456;2022-07-03T13:07:43;8.60;;;0.90;;
71792;SDS011;59639;51.170;6.456;2022-07-03T13:10:09;5.38;;;1.20;;
71792;SDS011;59639;51.170;6.456;2022-07-03T13:12:44;1.83;;;1.23;;
71792;SDS011;59639;51.170;6.456;2022-07-03T13:15:16;2.15;;;0.90;;
71792;SDS011;59639;51.170;6.456;2022-07-03T13:17:49;5.43;;;2.13;;
71792;SDS011;59639;51.170;6.456;2022-07-03T13:20:15;3.83;;;1.20;;
71792;SDS011;59639;51.170;6.456;2022-07-03T13:22:40;1.73;;;0.88;;
71792;SDS011;59639;51.170;6.456;2022-07-03T13:25:06;4.18;;;1.10;;
71792;SDS011;59639;51.170;6.456;2022-07-03T13:27:31;3.17;;;1.30;;
71792;SDS011;59639;51.170;6.456;2022-07-03T13:29:56;2.45;;;1.52;;
71792;SDS011;59639;51.170;6.456;2022-07-03T13:32:22;0.88;;;0.80;;
71792;SDS011;59639;51.170;6.456;2022-07-03T13:34:47;3.28;;;1.33;;
71792;SDS011;59639;51.170;6.456;2022-07-03T13:37:12;2.25;;;1.08;;
71792;SDS011;59639;51.170;6.456;2022-07-03T13:39:38;1.90;;;0.93;;
71792;SDS011;59639;51.170;6.456;2022-07-03T13:42:03;4.05;;;0.93;;
71792;SDS011;59639;51.170;6.456;2022-07-03T13:44:30;3.67;;;1.10;;
71792;SDS011;59639;51.170;6.456;2022-07-03T13:46:55;9.73;;;1.08;;
71792;SDS011;59639;51.170;6.456;2022-07-03T13:49:21;3.80;;;0.93;;
71792;SDS011;59639;51.170;6.456;2022-07-03T13:51:46;2.67;;;0.90;;
71792;SDS011;59639;51.170;6.456;2022-07-03T13:54:12;8.00;;;1.55;;
71792;SDS011;59639;51.170;6.456;2022-07-03T13:56:37;3.75;;;1.00;;
71792;SDS011;59639;51.170;6.456;2022-07-03T13:59:02;5.00;;;1.25;;
71792;SDS011;59639;51.170;6.456;2022-07-03T14:01:28;4.93;;;1.52;;
71792;SDS011;59639;51.170;6.456;2022-07-03T14:03:53;3.50;;;1.25;;
71792;SDS011;59639;51.170;6.456;2022-07-03T14:06:19;2.35;;;1.00;;
71792;SDS011;59639;51.170;6.456;2022-07-03T14:08:44;4.60;;;1.10;;
71792;SDS011;59639;51.170;6.456;2022-07-03T14:11:10;2.83;;;1.20;;
71792;SDS011;59639;51.170;6.456;2022-07-03T14:13:35;4.85;;;1.23;;
71792;SDS011;59639;51.170;6.456;2022-07-03T14:16:00;2.90;;;1.00;;
71792;SDS011;59639;51.170;6.456;2022-07-03T14:18:27;1.10;;;0.85;;
71792;SDS011;59639;51.170;6.456;2022-07-03T14:20:52;1.55;;;0.80;;
71792;SDS011;59639;51.170;6.456;2022-07-03T14:23:18;1.23;;;0.70;;
71792;SDS011;59639;51.170;6.456;2022-07-03T14:25:43;0.88;;;0.70;;
71792;SDS011;59639;51.170;6.456;2022-07-03T14:28:09;3.38;;;1.10;;
71792;SDS011;59639;51.170;6.456;2022-07-03T14:30:52;3.97;;;0.95;;
71792;SDS011;59639;51.170;6.456;2022-07-03T14:33:36;2.58;;;0.80;;
71792;SDS011;59639;51.170;6.456;2022-07-03T14:36:02;1.05;;;0.82;;
71792;SDS011;59639;51.170;6.456;2022-07-03T14:38:27;4.22;;;1.52;;
71792;SDS011;59639;51.170;6.456;2022-07-03T14:40:53;2.88;;;1.02;;
71792;SDS011;59639;51.170;6.456;2022-07-03T14:43:18;1.20;;;0.73;;
71792;SDS011;59639;51.170;6.456;2022-07-03T14:45:44;4.03;;;1.42;;
71792;SDS011;59639;51.170;6.456;2022-07-03T14:48:09;4.05;;;1.20;;
71792;SDS011;59639;51.170;6.456;2022-07-03T14:50:35;1.73;;;0.93;;
71792;SDS011;59639;51.170;6.456;2022-07-03T14:53:01;10.23;;;1.35;;
71792;SDS011;59639;51.170;6.456;2022-07-03T14:55:32;4.30;;;1.20;;
71792;SDS011;59639;51.170;6.456;2022-07-03T15:00:49;3.70;;;1.55;;
71792;SDS011;59639;51.170;6.456;2022-07-03T15:03:25;2.70;;;1.10;;
71792;SDS011;59639;51.170;6.456;2022-07-03T15:05:59;3.80;;;1.58;;
71792;SDS011;59639;51.170;6.456;2022-07-03T15:10:55;3.97;;;1.50;;
71792;SDS011;59639;51.170;6.456;2022-07-03T15:13:26;4.88;;;2.00;;
71792;SDS011;59639;51.170;6.456;2022-07-03T15:15:52;4.55;;;1.30;;
71792;SDS011;59639;51.170;6.456;2022-07-03T15:18:18;2.17;;;1.27;;
71792;SDS011;59639;51.170;6.456;2022-07-03T15:20:49;1.85;;;1.15;;
71792;SDS011;59639;51.170;6.456;2022-07-03T15:23:17;3.08;;;1.20;;
71792;SDS011;59639;51.170;6.456;2022-07-03T15:25:44;6.60;;;1.70;;
71792;SDS011;59639;51.170;6.456;2022-07-03T15:28:10;3.30;;;1.00;;
71792;SDS011;59639;51.170;6.456;2022-07-03T15:30:36;4.72;;;1.20;;
71792;SDS011;59639;51.170;6.456;2022-07-03T15:33:03;3.58;;;2.03;;
71792;SDS011;59639;51.170;6.456;2022-07-03T15:35:29;8.10;;;2.20;;
71792;SDS011;59639;51.170;6.456;2022-07-03T15:38:13;8.40;;;1.73;;
71792;SDS011;59639;51.170;6.456;2022-07-03T15:54:01;4.38;;;1.42;;
71792;SDS011;59639;51.170;6.456;2022-07-03T15:56:29;7.55;;;1.58;;
71792;SDS011;59639;51.170;6.456;2022-07-03T15:58:59;3.47;;;2.22;;
71792;SDS011;59639;51.170;6.456;2022-07-03T16:01:26;3.38;;;0.90;;
71792;SDS011;59639;51.170;6.456;2022-07-03T16:06:58;6.82;;;1.50;;
71792;SDS011;59639;51.170;6.456;2022-07-03T16:09:26;6.15;;;2.70;;
71792;SDS011;59639;51.170;6.456;2022-07-03T16:11:51;5.80;;;1.10;;
71792;SDS011;59639;51.170;6.456;2022-07-03T16:14:17;3.58;;;1.67;;
71792;SDS011;59639;51.170;6.456;2022-07-03T16:16:44;3.60;;;1.35;;
71792;SDS011;59639;51.170;6.456;2022-07-03T16:19:11;3.50;;;1.00;;
71792;SDS011;59639;51.170;6.456;2022-07-03T16:21:37;1.52;;;1.00;;
71792;SDS011;59639;51.170;6.456;2022-07-03T16:24:05;1.63;;;0.90;;
71792;SDS011;59639;51.170;6.456;2022-07-03T16:26:34;5.00;;;1.20;;
71792;SDS011;59639;51.170;6.456;2022-07-03T16:29:01;4.05;;;0.90;;
71792;SDS011;59639;51.170;6.456;2022-07-03T16:31:32;3.30;;;0.93;;
71792;SDS011;59639;51.170;6.456;2022-07-03T16:34:09;1.33;;;0.90;;